Ouagadougou, Burkina Faso
Current Conditions -  °F | °C
As of 10:55 AM on Saturday 25 Oct 2014 (Local Time) from KQBF Reporting Station
Clear Clear  
Wind Chill: 95°   Ceiling: Unl
Heat Index: 95°   Visibility: 6mi
Dew Point: 60°   Wind: 2mph
Humidity: 31%   Direction: 80°E
Pressure: 29.95"   Gusts: NA
Location:  12.37°N, 1.53°W
Report Text: KQBF 251055Z AUTO 08002KT 9999 CLR 35/15 A2995 RMK AO2 SLP122 T03480154 TSNO $
Loading
Personal Weather Stations






























Interactive Weather Map
Tropical Storm Tracking
New forecast layout! Learn more

10-Day Weather Forecast

Advertisements
Track Severe Weather on mobile